sensor_id;sensor_type;location;lat;lon;timestamp;P1;durP1;ratioP1;P2;durP2;ratioP2
2866;SDS011;1441;48.886;8.728;2022-07-22T00:02:01;7.37;;;5.90;;
2866;SDS011;1441;48.886;8.728;2022-07-22T00:04:26;5.97;;;5.47;;
2866;SDS011;1441;48.886;8.728;2022-07-22T00:06:52;6.77;;;6.00;;
2866;SDS011;1441;48.886;8.728;2022-07-22T00:09:17;5.87;;;5.33;;
2866;SDS011;1441;48.886;8.728;2022-07-22T00:11:43;6.53;;;5.83;;
2866;SDS011;1441;48.886;8.728;2022-07-22T00:14:09;5.90;;;5.40;;
2866;SDS011;1441;48.886;8.728;2022-07-22T00:16:34;6.50;;;5.90;;
2866;SDS011;1441;48.886;8.728;2022-07-22T00:19:00;7.37;;;6.67;;
2866;SDS011;1441;48.886;8.728;2022-07-22T00:21:26;6.60;;;6.00;;
2866;SDS011;1441;48.886;8.728;2022-07-22T00:23:51;6.50;;;6.00;;
2866;SDS011;1441;48.886;8.728;2022-07-22T00:26:17;8.33;;;6.33;;
2866;SDS011;1441;48.886;8.728;2022-07-22T00:28:42;6.33;;;5.70;;
2866;SDS011;1441;48.886;8.728;2022-07-22T00:31:08;7.40;;;6.70;;
2866;SDS011;1441;48.886;8.728;2022-07-22T00:33:34;6.40;;;5.77;;
2866;SDS011;1441;48.886;8.728;2022-07-22T00:35:59;7.10;;;6.40;;
2866;SDS011;1441;48.886;8.728;2022-07-22T00:38:25;6.17;;;5.77;;
2866;SDS011;1441;48.886;8.728;2022-07-22T00:40:51;8.23;;;6.37;;
2866;SDS011;1441;48.886;8.728;2022-07-22T00:43:16;6.70;;;6.10;;
2866;SDS011;1441;48.886;8.728;2022-07-22T00:45:42;6.70;;;6.10;;
2866;SDS011;1441;48.886;8.728;2022-07-22T00:48:07;6.20;;;5.67;;
2866;SDS011;1441;48.886;8.728;2022-07-22T00:50:33;7.83;;;6.97;;
2866;SDS011;1441;48.886;8.728;2022-07-22T00:52:59;6.97;;;6.37;;
2866;SDS011;1441;48.886;8.728;2022-07-22T00:55:25;6.97;;;6.03;;
2866;SDS011;1441;48.886;8.728;2022-07-22T00:57:51;6.20;;;5.70;;
2866;SDS011;1441;48.886;8.728;2022-07-22T01:00:18;7.73;;;7.03;;
2866;SDS011;1441;48.886;8.728;2022-07-22T01:02:44;9.60;;;6.97;;
2866;SDS011;1441;48.886;8.728;2022-07-22T01:05:10;7.87;;;6.80;;
2866;SDS011;1441;48.886;8.728;2022-07-22T01:07:37;8.33;;;6.77;;
2866;SDS011;1441;48.886;8.728;2022-07-22T01:10:04;7.90;;;6.87;;
2866;SDS011;1441;48.886;8.728;2022-07-22T01:12:31;6.90;;;6.23;;
2866;SDS011;1441;48.886;8.728;2022-07-22T01:14:57;7.63;;;6.83;;
2866;SDS011;1441;48.886;8.728;2022-07-22T01:17:23;7.83;;;6.70;;
2866;SDS011;1441;48.886;8.728;2022-07-22T01:19:48;7.67;;;6.97;;
2866;SDS011;1441;48.886;8.728;2022-07-22T01:22:15;8.37;;;7.10;;
2866;SDS011;1441;48.886;8.728;2022-07-22T01:24:41;8.20;;;7.50;;
2866;SDS011;1441;48.886;8.728;2022-07-22T01:27:06;7.83;;;6.70;;
2866;SDS011;1441;48.886;8.728;2022-07-22T01:29:32;15.43;;;8.07;;
2866;SDS011;1441;48.886;8.728;2022-07-22T01:31:58;10.53;;;7.90;;
2866;SDS011;1441;48.886;8.728;2022-07-22T01:34:24;11.40;;;8.40;;
2866;SDS011;1441;48.886;8.728;2022-07-22T01:36:50;9.20;;;8.30;;
2866;SDS011;1441;48.886;8.728;2022-07-22T01:39:15;10.40;;;7.80;;
2866;SDS011;1441;48.886;8.728;2022-07-22T01:41:42;8.40;;;7.60;;
2866;SDS011;1441;48.886;8.728;2022-07-22T01:44:08;9.10;;;8.17;;
2866;SDS011;1441;48.886;8.728;2022-07-22T01:46:33;8.73;;;7.83;;
2866;SDS011;1441;48.886;8.728;2022-07-22T01:48:59;9.17;;;8.07;;
2866;SDS011;1441;48.886;8.728;2022-07-22T01:51:25;9.03;;;8.10;;
2866;SDS011;1441;48.886;8.728;2022-07-22T01:53:51;8.43;;;7.67;;
2866;SDS011;1441;48.886;8.728;2022-07-22T01:56:16;10.20;;;8.13;;
2866;SDS011;1441;48.886;8.728;2022-07-22T01:58:42;9.27;;;8.47;;
2866;SDS011;1441;48.886;8.728;2022-07-22T02:01:08;8.37;;;7.57;;
2866;SDS011;1441;48.886;8.728;2022-07-22T02:03:33;9.60;;;8.17;;
2866;SDS011;1441;48.886;8.728;2022-07-22T02:05:59;9.20;;;8.27;;
2866;SDS011;1441;48.886;8.728;2022-07-22T02:08:25;9.07;;;8.17;;
2866;SDS011;1441;48.886;8.728;2022-07-22T02:10:51;13.80;;;8.60;;
2866;SDS011;1441;48.886;8.728;2022-07-22T02:13:16;9.77;;;8.40;;
2866;SDS011;1441;48.886;8.728;2022-07-22T02:15:42;9.67;;;8.37;;
2866;SDS011;1441;48.886;8.728;2022-07-22T02:18:11;12.23;;;8.33;;
2866;SDS011;1441;48.886;8.728;2022-07-22T02:20:38;17.43;;;8.70;;
2866;SDS011;1441;48.886;8.728;2022-07-22T02:23:04;10.73;;;8.53;;
2866;SDS011;1441;48.886;8.728;2022-07-22T02:25:30;13.13;;;8.70;;
2866;SDS011;1441;48.886;8.728;2022-07-22T02:27:56;8.60;;;7.80;;
2866;SDS011;1441;48.886;8.728;2022-07-22T02:30:21;9.17;;;8.27;;
2866;SDS011;1441;48.886;8.728;2022-07-22T02:32:47;14.10;;;10.17;;
2866;SDS011;1441;48.886;8.728;2022-07-22T02:35:13;12.93;;;8.17;;
2866;SDS011;1441;48.886;8.728;2022-07-22T02:37:38;8.97;;;8.17;;
2866;SDS011;1441;48.886;8.728;2022-07-22T02:40:05;8.90;;;8.07;;
2866;SDS011;1441;48.886;8.728;2022-07-22T02:42:31;10.60;;;8.80;;
2866;SDS011;1441;48.886;8.728;2022-07-22T02:44:56;10.03;;;9.00;;
2866;SDS011;1441;48.886;8.728;2022-07-22T02:47:22;12.30;;;10.63;;
2866;SDS011;1441;48.886;8.728;2022-07-22T02:49:48;12.03;;;8.93;;
2866;SDS011;1441;48.886;8.728;2022-07-22T02:52:13;11.50;;;8.73;;
2866;SDS011;1441;48.886;8.728;2022-07-22T02:54:39;12.50;;;9.97;;
2866;SDS011;1441;48.886;8.728;2022-07-22T02:57:04;10.57;;;9.10;;
2866;SDS011;1441;48.886;8.728;2022-07-22T02:59:30;10.87;;;8.83;;
2866;SDS011;1441;48.886;8.728;2022-07-22T03:01:55;10.30;;;9.30;;
2866;SDS011;1441;48.886;8.728;2022-07-22T03:04:21;11.37;;;9.43;;
2866;SDS011;1441;48.886;8.728;2022-07-22T03:06:47;13.13;;;9.00;;
2866;SDS011;1441;48.886;8.728;2022-07-22T03:09:12;14.27;;;9.50;;
2866;SDS011;1441;48.886;8.728;2022-07-22T03:11:38;10.87;;;9.40;;
2866;SDS011;1441;48.886;8.728;2022-07-22T03:14:03;11.80;;;9.43;;
2866;SDS011;1441;48.886;8.728;2022-07-22T03:16:29;11.47;;;9.30;;
2866;SDS011;1441;48.886;8.728;2022-07-22T03:18:54;11.20;;;8.97;;
2866;SDS011;1441;48.886;8.728;2022-07-22T03:21:20;12.13;;;9.00;;
2866;SDS011;1441;48.886;8.728;2022-07-22T03:23:46;12.10;;;9.80;;
2866;SDS011;1441;48.886;8.728;2022-07-22T03:26:11;10.20;;;9.10;;
2866;SDS011;1441;48.886;8.728;2022-07-22T03:28:37;11.27;;;10.07;;
2866;SDS011;1441;48.886;8.728;2022-07-22T03:31:03;10.30;;;9.30;;
2866;SDS011;1441;48.886;8.728;2022-07-22T03:33:28;11.03;;;9.50;;
2866;SDS011;1441;48.886;8.728;2022-07-22T03:35:54;11.27;;;9.33;;
2866;SDS011;1441;48.886;8.728;2022-07-22T03:38:19;11.20;;;9.97;;
2866;SDS011;1441;48.886;8.728;2022-07-22T03:40:45;14.47;;;9.77;;
2866;SDS011;1441;48.886;8.728;2022-07-22T03:43:11;12.77;;;9.53;;
2866;SDS011;1441;48.886;8.728;2022-07-22T03:45:36;10.73;;;8.90;;
2866;SDS011;1441;48.886;8.728;2022-07-22T03:48:02;10.30;;;9.37;;
2866;SDS011;1441;48.886;8.728;2022-07-22T03:50:28;10.73;;;9.63;;
2866;SDS011;1441;48.886;8.728;2022-07-22T03:52:54;12.43;;;10.50;;
2866;SDS011;1441;48.886;8.728;2022-07-22T03:55:19;14.83;;;9.60;;
2866;SDS011;1441;48.886;8.728;2022-07-22T03:57:45;10.20;;;9.20;;
2866;SDS011;1441;48.886;8.728;2022-07-22T04:00:10;11.23;;;10.03;;
2866;SDS011;1441;48.886;8.728;2022-07-22T04:02:36;12.13;;;10.10;;
2866;SDS011;1441;48.886;8.728;2022-07-22T04:05:02;14.53;;;9.90;;
2866;SDS011;1441;48.886;8.728;2022-07-22T04:07:27;10.07;;;9.07;;
2866;SDS011;1441;48.886;8.728;2022-07-22T04:09:53;10.13;;;9.07;;
2866;SDS011;1441;48.886;8.728;2022-07-22T04:12:29;10.40;;;9.30;;
2866;SDS011;1441;48.886;8.728;2022-07-22T04:15:05;10.00;;;8.80;;
2866;SDS011;1441;48.886;8.728;2022-07-22T04:17:32;9.67;;;8.70;;
2866;SDS011;1441;48.886;8.728;2022-07-22T04:19:58;10.43;;;8.73;;
2866;SDS011;1441;48.886;8.728;2022-07-22T04:22:25;10.23;;;8.43;;
2866;SDS011;1441;48.886;8.728;2022-07-22T04:24:51;10.13;;;9.13;;
2866;SDS011;1441;48.886;8.728;2022-07-22T04:27:17;9.53;;;8.30;;
2866;SDS011;1441;48.886;8.728;2022-07-22T04:29:43;13.93;;;9.67;;
2866;SDS011;1441;48.886;8.728;2022-07-22T04:32:08;11.20;;;9.23;;
2866;SDS011;1441;48.886;8.728;2022-07-22T04:34:34;11.07;;;9.97;;
2866;SDS011;1441;48.886;8.728;2022-07-22T04:36:59;11.10;;;9.83;;
2866;SDS011;1441;48.886;8.728;2022-07-22T04:39:25;11.17;;;10.10;;
2866;SDS011;1441;48.886;8.728;2022-07-22T04:41:50;12.00;;;10.30;;
2866;SDS011;1441;48.886;8.728;2022-07-22T04:44:16;11.00;;;9.60;;
2866;SDS011;1441;48.886;8.728;2022-07-22T04:46:42;11.20;;;9.97;;
2866;SDS011;1441;48.886;8.728;2022-07-22T04:49:07;15.10;;;10.00;;
2866;SDS011;1441;48.886;8.728;2022-07-22T04:51:33;11.50;;;9.60;;
2866;SDS011;1441;48.886;8.728;2022-07-22T04:53:58;11.07;;;9.90;;
2866;SDS011;1441;48.886;8.728;2022-07-22T04:56:24;11.97;;;10.50;;
2866;SDS011;1441;48.886;8.728;2022-07-22T04:58:50;13.93;;;9.80;;
2866;SDS011;1441;48.886;8.728;2022-07-22T05:01:16;13.80;;;11.03;;
2866;SDS011;1441;48.886;8.728;2022-07-22T05:03:42;11.60;;;9.97;;
2866;SDS011;1441;48.886;8.728;2022-07-22T05:06:08;11.70;;;9.93;;
2866;SDS011;1441;48.886;8.728;2022-07-22T05:08:34;11.80;;;10.33;;
2866;SDS011;1441;48.886;8.728;2022-07-22T05:10:59;11.37;;;10.30;;
2866;SDS011;1441;48.886;8.728;2022-07-22T05:13:25;11.00;;;9.90;;
2866;SDS011;1441;48.886;8.728;2022-07-22T05:15:51;11.30;;;9.53;;
2866;SDS011;1441;48.886;8.728;2022-07-22T05:18:16;11.53;;;9.77;;
2866;SDS011;1441;48.886;8.728;2022-07-22T05:20:42;12.10;;;10.30;;
2866;SDS011;1441;48.886;8.728;2022-07-22T05:23:08;10.33;;;9.33;;
2866;SDS011;1441;48.886;8.728;2022-07-22T05:25:34;13.97;;;10.00;;
2866;SDS011;1441;48.886;8.728;2022-07-22T05:27:59;11.07;;;9.70;;
2866;SDS011;1441;48.886;8.728;2022-07-22T05:30:25;11.40;;;10.10;;
2866;SDS011;1441;48.886;8.728;2022-07-22T05:32:51;11.23;;;9.47;;
2866;SDS011;1441;48.886;8.728;2022-07-22T05:35:17;10.87;;;9.77;;
2866;SDS011;1441;48.886;8.728;2022-07-22T05:37:43;14.13;;;10.07;;
2866;SDS011;1441;48.886;8.728;2022-07-22T05:40:09;10.70;;;9.70;;
2866;SDS011;1441;48.886;8.728;2022-07-22T05:42:34;14.77;;;8.90;;
2866;SDS011;1441;48.886;8.728;2022-07-22T05:45:00;15.90;;;8.40;;
2866;SDS011;1441;48.886;8.728;2022-07-22T05:47:26;10.73;;;9.77;;
2866;SDS011;1441;48.886;8.728;2022-07-22T05:49:51;9.40;;;8.50;;
2866;SDS011;1441;48.886;8.728;2022-07-22T05:52:17;14.80;;;9.23;;
2866;SDS011;1441;48.886;8.728;2022-07-22T05:54:43;9.70;;;8.80;;
2866;SDS011;1441;48.886;8.728;2022-07-22T05:57:08;8.70;;;7.90;;
2866;SDS011;1441;48.886;8.728;2022-07-22T05:59:35;13.13;;;8.57;;
2866;SDS011;1441;48.886;8.728;2022-07-22T06:02:00;9.33;;;8.17;;
2866;SDS011;1441;48.886;8.728;2022-07-22T06:04:26;8.20;;;7.50;;
2866;SDS011;1441;48.886;8.728;2022-07-22T06:06:52;12.07;;;7.23;;
2866;SDS011;1441;48.886;8.728;2022-07-22T06:09:17;8.23;;;6.80;;
2866;SDS011;1441;48.886;8.728;2022-07-22T06:11:43;8.20;;;7.50;;
2866;SDS011;1441;48.886;8.728;2022-07-22T06:14:08;8.80;;;7.03;;
2866;SDS011;1441;48.886;8.728;2022-07-22T06:16:34;8.03;;;7.27;;
2866;SDS011;1441;48.886;8.728;2022-07-22T06:19:00;7.90;;;7.10;;
2866;SDS011;1441;48.886;8.728;2022-07-22T06:21:27;7.60;;;6.90;;
2866;SDS011;1441;48.886;8.728;2022-07-22T06:23:52;8.03;;;6.17;;
2866;SDS011;1441;48.886;8.728;2022-07-22T06:26:18;8.40;;;6.57;;
2866;SDS011;1441;48.886;8.728;2022-07-22T06:28:43;11.43;;;7.13;;
2866;SDS011;1441;48.886;8.728;2022-07-22T06:31:09;7.53;;;6.77;;
2866;SDS011;1441;48.886;8.728;2022-07-22T06:33:35;8.70;;;6.57;;
2866;SDS011;1441;48.886;8.728;2022-07-22T06:36:02;6.70;;;6.07;;
2866;SDS011;1441;48.886;8.728;2022-07-22T06:38:28;7.30;;;6.70;;
2866;SDS011;1441;48.886;8.728;2022-07-22T06:40:54;7.00;;;6.23;;
2866;SDS011;1441;48.886;8.728;2022-07-22T06:43:19;6.30;;;5.70;;
2866;SDS011;1441;48.886;8.728;2022-07-22T06:45:45;7.17;;;6.57;;
2866;SDS011;1441;48.886;8.728;2022-07-22T06:48:11;10.87;;;6.70;;
2866;SDS011;1441;48.886;8.728;2022-07-22T06:50:36;6.73;;;6.03;;
2866;SDS011;1441;48.886;8.728;2022-07-22T06:53:02;7.60;;;6.33;;
2866;SDS011;1441;48.886;8.728;2022-07-22T06:55:28;6.67;;;6.07;;
2866;SDS011;1441;48.886;8.728;2022-07-22T06:57:53;6.40;;;5.73;;
2866;SDS011;1441;48.886;8.728;2022-07-22T07:00:19;7.20;;;6.03;;
2866;SDS011;1441;48.886;8.728;2022-07-22T07:02:45;5.33;;;4.93;;
2866;SDS011;1441;48.886;8.728;2022-07-22T07:05:10;5.53;;;5.17;;
2866;SDS011;1441;48.886;8.728;2022-07-22T07:07:36;5.00;;;4.70;;
2866;SDS011;1441;48.886;8.728;2022-07-22T07:10:02;5.30;;;4.90;;
2866;SDS011;1441;48.886;8.728;2022-07-22T07:12:28;5.03;;;4.70;;
2866;SDS011;1441;48.886;8.728;2022-07-22T07:14:54;6.10;;;4.97;;
2866;SDS011;1441;48.886;8.728;2022-07-22T07:17:19;5.63;;;4.97;;
2866;SDS011;1441;48.886;8.728;2022-07-22T07:19:45;6.53;;;5.30;;
2866;SDS011;1441;48.886;8.728;2022-07-22T07:22:10;5.83;;;4.70;;
2866;SDS011;1441;48.886;8.728;2022-07-22T07:24:36;4.33;;;4.03;;
2866;SDS011;1441;48.886;8.728;2022-07-22T07:27:02;5.10;;;4.63;;
2866;SDS011;1441;48.886;8.728;2022-07-22T07:29:27;4.83;;;4.20;;
2866;SDS011;1441;48.886;8.728;2022-07-22T07:31:53;6.33;;;5.23;;
2866;SDS011;1441;48.886;8.728;2022-07-22T07:34:18;5.23;;;4.80;;
2866;SDS011;1441;48.886;8.728;2022-07-22T07:36:44;6.67;;;5.40;;
2866;SDS011;1441;48.886;8.728;2022-07-22T07:39:10;6.00;;;5.60;;
2866;SDS011;1441;48.886;8.728;2022-07-22T07:41:35;6.73;;;6.13;;
2866;SDS011;1441;48.886;8.728;2022-07-22T07:44:01;8.03;;;6.80;;
2866;SDS011;1441;48.886;8.728;2022-07-22T07:46:26;7.43;;;6.70;;
2866;SDS011;1441;48.886;8.728;2022-07-22T07:48:52;7.03;;;6.43;;
2866;SDS011;1441;48.886;8.728;2022-07-22T07:51:18;6.63;;;5.97;;
2866;SDS011;1441;48.886;8.728;2022-07-22T07:53:43;7.97;;;6.30;;
2866;SDS011;1441;48.886;8.728;2022-07-22T07:56:10;7.47;;;6.00;;
2866;SDS011;1441;48.886;8.728;2022-07-22T07:58:35;6.73;;;6.23;;
2866;SDS011;1441;48.886;8.728;2022-07-22T08:01:01;9.93;;;6.30;;
2866;SDS011;1441;48.886;8.728;2022-07-22T08:03:27;7.30;;;5.97;;
2866;SDS011;1441;48.886;8.728;2022-07-22T08:05:52;7.87;;;6.93;;
2866;SDS011;1441;48.886;8.728;2022-07-22T08:08:18;10.67;;;6.77;;
2866;SDS011;1441;48.886;8.728;2022-07-22T08:10:44;8.00;;;6.20;;
2866;SDS011;1441;48.886;8.728;2022-07-22T08:13:10;6.20;;;5.60;;
2866;SDS011;1441;48.886;8.728;2022-07-22T08:15:35;7.03;;;6.43;;
2866;SDS011;1441;48.886;8.728;2022-07-22T08:18:01;7.10;;;6.40;;
2866;SDS011;1441;48.886;8.728;2022-07-22T08:20:28;6.20;;;5.70;;
2866;SDS011;1441;48.886;8.728;2022-07-22T08:22:53;6.23;;;5.63;;
2866;SDS011;1441;48.886;8.728;2022-07-22T08:25:19;6.90;;;6.20;;
2866;SDS011;1441;48.886;8.728;2022-07-22T08:27:46;10.60;;;6.10;;
2866;SDS011;1441;48.886;8.728;2022-07-22T08:30:12;5.67;;;5.27;;
2866;SDS011;1441;48.886;8.728;2022-07-22T08:32:37;6.60;;;6.03;;
2866;SDS011;1441;48.886;8.728;2022-07-22T08:35:03;6.57;;;5.83;;
2866;SDS011;1441;48.886;8.728;2022-07-22T08:37:30;6.63;;;5.57;;
2866;SDS011;1441;48.886;8.728;2022-07-22T08:39:56;7.33;;;6.73;;
2866;SDS011;1441;48.886;8.728;2022-07-22T08:42:23;6.93;;;6.37;;
2866;SDS011;1441;48.886;8.728;2022-07-22T08:44:49;8.43;;;6.17;;
2866;SDS011;1441;48.886;8.728;2022-07-22T08:47:15;7.50;;;6.03;;
2866;SDS011;1441;48.886;8.728;2022-07-22T08:49:45;7.00;;;6.37;;
2866;SDS011;1441;48.886;8.728;2022-07-22T08:52:11;7.67;;;7.07;;
2866;SDS011;1441;48.886;8.728;2022-07-22T08:54:36;6.60;;;6.00;;
2866;SDS011;1441;48.886;8.728;2022-07-22T08:57:02;6.50;;;6.00;;
2866;SDS011;1441;48.886;8.728;2022-07-22T08:59:27;6.97;;;6.27;;
2866;SDS011;1441;48.886;8.728;2022-07-22T09:02:09;6.93;;;6.33;;
2866;SDS011;1441;48.886;8.728;2022-07-22T09:09:59;5.90;;;5.43;;
2866;SDS011;1441;48.886;8.728;2022-07-22T09:12:26;10.13;;;6.20;;
2866;SDS011;1441;48.886;8.728;2022-07-22T09:14:57;7.50;;;5.83;;
2866;SDS011;1441;48.886;8.728;2022-07-22T09:19:58;6.77;;;5.60;;
2866;SDS011;1441;48.886;8.728;2022-07-22T09:22:34;9.43;;;5.97;;
2866;SDS011;1441;48.886;8.728;2022-07-22T09:25:18;9.50;;;5.80;;
2866;SDS011;1441;48.886;8.728;2022-07-22T09:30:33;5.83;;;5.43;;
2866;SDS011;1441;48.886;8.728;2022-07-22T09:33:00;6.33;;;5.60;;
2866;SDS011;1441;48.886;8.728;2022-07-22T09:35:26;6.10;;;5.50;;
2866;SDS011;1441;48.886;8.728;2022-07-22T09:37:53;6.97;;;5.63;;
2866;SDS011;1441;48.886;8.728;2022-07-22T09:40:21;7.03;;;6.00;;
2866;SDS011;1441;48.886;8.728;2022-07-22T09:42:55;6.60;;;5.90;;
2866;SDS011;1441;48.886;8.728;2022-07-22T09:45:23;7.60;;;6.17;;
2866;SDS011;1441;48.886;8.728;2022-07-22T09:47:50;6.40;;;5.90;;
2866;SDS011;1441;48.886;8.728;2022-07-22T09:50:26;6.57;;;5.97;;
2866;SDS011;1441;48.886;8.728;2022-07-22T09:52:52;7.70;;;6.43;;
2866;SDS011;1441;48.886;8.728;2022-07-22T09:55:19;6.53;;;6.00;;
2866;SDS011;1441;48.886;8.728;2022-07-22T09:57:46;7.63;;;6.40;;
2866;SDS011;1441;48.886;8.728;2022-07-22T10:00:13;6.80;;;6.20;;
2866;SDS011;1441;48.886;8.728;2022-07-22T10:02:52;11.50;;;5.70;;
2866;SDS011;1441;48.886;8.728;2022-07-22T10:05:25;5.83;;;5.20;;
2866;SDS011;1441;48.886;8.728;2022-07-22T10:07:53;5.90;;;5.50;;
2866;SDS011;1441;48.886;8.728;2022-07-22T10:10:23;6.10;;;5.70;;
2866;SDS011;1441;48.886;8.728;2022-07-22T10:12:50;5.63;;;5.20;;
2866;SDS011;1441;48.886;8.728;2022-07-22T10:15:18;5.60;;;5.07;;
2866;SDS011;1441;48.886;8.728;2022-07-22T10:17:46;7.93;;;6.03;;
2866;SDS011;1441;48.886;8.728;2022-07-22T10:20:15;6.00;;;5.60;;
2866;SDS011;1441;48.886;8.728;2022-07-22T10:22:47;5.33;;;4.97;;
2866;SDS011;1441;48.886;8.728;2022-07-22T10:25:14;6.10;;;4.97;;
2866;SDS011;1441;48.886;8.728;2022-07-22T10:28:00;8.07;;;5.47;;
2866;SDS011;1441;48.886;8.728;2022-07-22T10:30:31;6.73;;;5.67;;
2866;SDS011;1441;48.886;8.728;2022-07-22T10:33:05;5.33;;;4.93;;
2866;SDS011;1441;48.886;8.728;2022-07-22T10:38:26;5.37;;;4.97;;
2866;SDS011;1441;48.886;8.728;2022-07-22T10:40:57;6.10;;;5.50;;
2866;SDS011;1441;48.886;8.728;2022-07-22T10:43:25;6.20;;;4.80;;
2866;SDS011;1441;48.886;8.728;2022-07-22T10:45:53;6.50;;;5.67;;
2866;SDS011;1441;48.886;8.728;2022-07-22T10:48:22;6.20;;;5.60;;
2866;SDS011;1441;48.886;8.728;2022-07-22T10:51:08;5.50;;;5.10;;
2866;SDS011;1441;48.886;8.728;2022-07-22T10:53:40;7.43;;;5.47;;
2866;SDS011;1441;48.886;8.728;2022-07-22T10:56:34;6.13;;;5.63;;
2866;SDS011;1441;48.886;8.728;2022-07-22T11:01:35;7.13;;;6.43;;
2866;SDS011;1441;48.886;8.728;2022-07-22T11:04:17;6.80;;;6.07;;
2866;SDS011;1441;48.886;8.728;2022-07-22T11:06:47;5.70;;;5.30;;
2866;SDS011;1441;48.886;8.728;2022-07-22T11:09:14;5.80;;;5.20;;
2866;SDS011;1441;48.886;8.728;2022-07-22T11:11:46;5.90;;;5.30;;
2866;SDS011;1441;48.886;8.728;2022-07-22T11:14:32;6.47;;;5.60;;
2866;SDS011;1441;48.886;8.728;2022-07-22T11:16:59;8.53;;;5.60;;
2866;SDS011;1441;48.886;8.728;2022-07-22T11:19:30;5.43;;;5.00;;
2866;SDS011;1441;48.886;8.728;2022-07-22T11:21:59;8.33;;;4.60;;
2866;SDS011;1441;48.886;8.728;2022-07-22T11:24:29;5.87;;;5.40;;
2866;SDS011;1441;48.886;8.728;2022-07-22T11:26:56;5.83;;;4.90;;
2866;SDS011;1441;48.886;8.728;2022-07-22T11:31:59;5.17;;;4.77;;
2866;SDS011;1441;48.886;8.728;2022-07-22T11:34:26;5.03;;;4.60;;
2866;SDS011;1441;48.886;8.728;2022-07-22T11:36:53;4.77;;;4.40;;
2866;SDS011;1441;48.886;8.728;2022-07-22T11:39:24;4.80;;;4.50;;
2866;SDS011;1441;48.886;8.728;2022-07-22T11:41:54;8.47;;;5.40;;
2866;SDS011;1441;48.886;8.728;2022-07-22T11:44:22;5.43;;;5.03;;
2866;SDS011;1441;48.886;8.728;2022-07-22T11:46:50;5.60;;;5.20;;
2866;SDS011;1441;48.886;8.728;2022-07-22T11:49:17;7.80;;;5.50;;
2866;SDS011;1441;48.886;8.728;2022-07-22T11:51:45;5.67;;;5.00;;
2866;SDS011;1441;48.886;8.728;2022-07-22T11:54:12;5.63;;;5.23;;
2866;SDS011;1441;48.886;8.728;2022-07-22T11:56:37;5.97;;;5.40;;
2866;SDS011;1441;48.886;8.728;2022-07-22T11:59:04;5.87;;;5.30;;
2866;SDS011;1441;48.886;8.728;2022-07-22T12:01:31;4.90;;;4.60;;
2866;SDS011;1441;48.886;8.728;2022-07-22T12:04:08;5.90;;;4.33;;
2866;SDS011;1441;48.886;8.728;2022-07-22T12:06:39;3.87;;;3.67;;
2866;SDS011;1441;48.886;8.728;2022-07-22T12:09:14;4.50;;;4.13;;
2866;SDS011;1441;48.886;8.728;2022-07-22T12:11:46;4.23;;;3.87;;
2866;SDS011;1441;48.886;8.728;2022-07-22T12:14:18;4.30;;;3.90;;
2866;SDS011;1441;48.886;8.728;2022-07-22T12:19:29;5.67;;;5.00;;
2866;SDS011;1441;48.886;8.728;2022-07-22T12:22:00;7.27;;;4.80;;
2866;SDS011;1441;48.886;8.728;2022-07-22T12:24:40;5.60;;;4.90;;
2866;SDS011;1441;48.886;8.728;2022-07-22T12:27:09;6.97;;;4.67;;
2866;SDS011;1441;48.886;8.728;2022-07-22T12:32:09;6.93;;;5.00;;
2866;SDS011;1441;48.886;8.728;2022-07-22T12:34:44;6.83;;;4.43;;
2866;SDS011;1441;48.886;8.728;2022-07-22T12:37:26;6.30;;;4.30;;
2866;SDS011;1441;48.886;8.728;2022-07-22T12:42:47;5.13;;;4.63;;
2866;SDS011;1441;48.886;8.728;2022-07-22T12:45:25;5.30;;;4.80;;
2866;SDS011;1441;48.886;8.728;2022-07-22T12:47:56;5.07;;;4.57;;
2866;SDS011;1441;48.886;8.728;2022-07-22T12:53:24;4.00;;;3.80;;
2866;SDS011;1441;48.886;8.728;2022-07-22T12:55:52;4.77;;;4.37;;
2866;SDS011;1441;48.886;8.728;2022-07-22T12:58:28;4.70;;;4.03;;
2866;SDS011;1441;48.886;8.728;2022-07-22T13:00:57;4.60;;;3.73;;
2866;SDS011;1441;48.886;8.728;2022-07-22T13:03:24;4.47;;;4.07;;
2866;SDS011;1441;48.886;8.728;2022-07-22T13:05:51;4.23;;;3.93;;
2866;SDS011;1441;48.886;8.728;2022-07-22T13:08:19;4.33;;;4.03;;
2866;SDS011;1441;48.886;8.728;2022-07-22T13:10:45;7.07;;;4.60;;
2866;SDS011;1441;48.886;8.728;2022-07-22T13:13:10;4.90;;;3.73;;
2866;SDS011;1441;48.886;8.728;2022-07-22T13:15:36;8.00;;;4.00;;
2866;SDS011;1441;48.886;8.728;2022-07-22T13:18:03;5.80;;;4.40;;
2866;SDS011;1441;48.886;8.728;2022-07-22T13:20:29;4.07;;;3.77;;
2866;SDS011;1441;48.886;8.728;2022-07-22T13:22:55;4.17;;;3.80;;
2866;SDS011;1441;48.886;8.728;2022-07-22T13:25:20;5.80;;;4.23;;
2866;SDS011;1441;48.886;8.728;2022-07-22T13:27:46;3.97;;;3.67;;
2866;SDS011;1441;48.886;8.728;2022-07-22T13:30:12;4.10;;;3.73;;
2866;SDS011;1441;48.886;8.728;2022-07-22T13:32:38;4.63;;;4.10;;
2866;SDS011;1441;48.886;8.728;2022-07-22T13:35:04;4.80;;;4.40;;
2866;SDS011;1441;48.886;8.728;2022-07-22T13:37:30;3.93;;;3.63;;
2866;SDS011;1441;48.886;8.728;2022-07-22T13:39:55;5.13;;;4.73;;
2866;SDS011;1441;48.886;8.728;2022-07-22T13:42:21;4.80;;;4.40;;
2866;SDS011;1441;48.886;8.728;2022-07-22T13:44:47;4.20;;;3.90;;
2866;SDS011;1441;48.886;8.728;2022-07-22T13:47:14;4.53;;;4.23;;
2866;SDS011;1441;48.886;8.728;2022-07-22T13:49:40;5.23;;;4.73;;
2866;SDS011;1441;48.886;8.728;2022-07-22T13:52:06;6.60;;;5.60;;
2866;SDS011;1441;48.886;8.728;2022-07-22T13:54:32;6.00;;;5.40;;
2866;SDS011;1441;48.886;8.728;2022-07-22T13:56:59;5.07;;;4.57;;
2866;SDS011;1441;48.886;8.728;2022-07-22T13:59:25;5.97;;;4.63;;
2866;SDS011;1441;48.886;8.728;2022-07-22T14:01:52;5.87;;;5.10;;
2866;SDS011;1441;48.886;8.728;2022-07-22T14:04:18;6.60;;;4.60;;
2866;SDS011;1441;48.886;8.728;2022-07-22T14:06:44;10.40;;;4.93;;
2866;SDS011;1441;48.886;8.728;2022-07-22T14:09:09;7.13;;;5.10;;
2866;SDS011;1441;48.886;8.728;2022-07-22T14:11:35;5.70;;;5.30;;
2866;SDS011;1441;48.886;8.728;2022-07-22T14:14:00;6.70;;;4.60;;
2866;SDS011;1441;48.886;8.728;2022-07-22T14:16:26;9.13;;;4.60;;
2866;SDS011;1441;48.886;8.728;2022-07-22T14:19:10;4.80;;;4.50;;
2866;SDS011;1441;48.886;8.728;2022-07-22T14:21:38;5.87;;;5.33;;
2866;SDS011;1441;48.886;8.728;2022-07-22T14:24:06;4.80;;;4.40;;
2866;SDS011;1441;48.886;8.728;2022-07-22T14:26:33;7.30;;;4.63;;
2866;SDS011;1441;48.886;8.728;2022-07-22T14:28:59;5.20;;;4.70;;
2866;SDS011;1441;48.886;8.728;2022-07-22T14:31:25;5.10;;;4.10;;
2866;SDS011;1441;48.886;8.728;2022-07-22T14:33:51;5.43;;;5.07;;
2866;SDS011;1441;48.886;8.728;2022-07-22T14:36:17;12.23;;;5.00;;
2866;SDS011;1441;48.886;8.728;2022-07-22T14:38:43;5.13;;;4.83;;
2866;SDS011;1441;48.886;8.728;2022-07-22T14:41:09;5.77;;;4.83;;
2866;SDS011;1441;48.886;8.728;2022-07-22T14:43:34;5.67;;;5.00;;
2866;SDS011;1441;48.886;8.728;2022-07-22T14:46:00;5.47;;;4.90;;
2866;SDS011;1441;48.886;8.728;2022-07-22T14:48:27;4.97;;;4.60;;
2866;SDS011;1441;48.886;8.728;2022-07-22T14:50:53;8.47;;;4.57;;
2866;SDS011;1441;48.886;8.728;2022-07-22T14:53:19;4.90;;;4.50;;
2866;SDS011;1441;48.886;8.728;2022-07-22T14:55:44;15.40;;;6.53;;
2866;SDS011;1441;48.886;8.728;2022-07-22T14:58:10;27.87;;;7.20;;
2866;SDS011;1441;48.886;8.728;2022-07-22T15:00:36;13.80;;;6.80;;
2866;SDS011;1441;48.886;8.728;2022-07-22T15:03:01;6.87;;;5.80;;
2866;SDS011;1441;48.886;8.728;2022-07-22T15:05:27;6.00;;;4.70;;
2866;SDS011;1441;48.886;8.728;2022-07-22T15:07:52;4.40;;;4.10;;
2866;SDS011;1441;48.886;8.728;2022-07-22T15:10:18;5.00;;;4.60;;
2866;SDS011;1441;48.886;8.728;2022-07-22T15:12:44;5.30;;;4.90;;
2866;SDS011;1441;48.886;8.728;2022-07-22T15:15:09;6.37;;;4.40;;
2866;SDS011;1441;48.886;8.728;2022-07-22T15:17:36;5.37;;;4.57;;
2866;SDS011;1441;48.886;8.728;2022-07-22T15:20:03;5.27;;;4.77;;
2866;SDS011;1441;48.886;8.728;2022-07-22T15:22:30;6.50;;;4.70;;
2866;SDS011;1441;48.886;8.728;2022-07-22T15:24:56;5.67;;;5.13;;
2866;SDS011;1441;48.886;8.728;2022-07-22T15:27:22;10.43;;;6.10;;
2866;SDS011;1441;48.886;8.728;2022-07-22T15:29:47;7.47;;;5.50;;
2866;SDS011;1441;48.886;8.728;2022-07-22T15:32:13;5.80;;;5.40;;
2866;SDS011;1441;48.886;8.728;2022-07-22T15:34:40;10.90;;;5.70;;
2866;SDS011;1441;48.886;8.728;2022-07-22T15:37:05;12.80;;;5.20;;
2866;SDS011;1441;48.886;8.728;2022-07-22T15:39:31;8.03;;;5.53;;